Aviation Digital Data Service (ADDS)

Output produced by METARs form (0708 UTC 20 March 2019)
found at http://www.aviationweather.gov/metar/data/
 
Forecast for: LFTH (HYERES/LE PALYVE, FR)
Text: TAF LFTH 200200Z 2003/2103 33005KT CAVOK
Forecast period: 0300 to 1000 UTC 20 March 2019
Forecast type: FROM: standard forecast or significant change
Winds: from the NNW (330 degrees) at 6 MPH (5 knots; 2.6 m/s)
Visibility: 6 or more miles 10+ km)
Ceiling: unknown
Clouds: missing
Weather: NSW  (no significant weather)
Text: BECMG 2010/2012 09010KT
Forecast period: 1000 to 1900 UTC 20 March 2019
Forecast type: BECOMING: Conditions expected to become as follows by 1200 UTC 20 March 2019
Winds: from the E (90 degrees) at 12 MPH (10 knots; 5.1 m/s)
Visibility: 6 or more miles 10+ km)
Ceiling: unknown
Clouds: missing
Weather: NSW  (no significant weather)
Text: BECMG 2019/2021 36010KT
Forecast period: 1900 UTC 20 March 2019 to 0300 UTC 21 March 2019
Forecast type: BECOMING: Conditions expected to become as follows by 2100 UTC 20 March 2019
Winds: from the N (360 degrees) at 12 MPH (10 knots; 5.1 m/s)
Visibility: 6 or more miles 10+ km)
Ceiling: unknown
Clouds: missing
Weather: NSW  (no significant weather)